createdAt,value
2023-05-05T00:00:00.499Z,60
2023-05-05T00:04:00.577Z,60
2023-05-05T00:08:00.429Z,59
2023-05-05T00:12:00.472Z,59
2023-05-05T00:16:00.446Z,59
2023-05-05T00:20:00.478Z,60
2023-05-05T00:24:00.485Z,60
2023-05-05T00:28:00.450Z,61
2023-05-05T00:32:00.472Z,61
2023-05-05T00:36:00.460Z,61
2023-05-05T00:40:00.452Z,61
2023-05-05T00:44:00.468Z,62
2023-05-05T00:48:00.531Z,61
2023-05-05T00:52:00.450Z,61
2023-05-05T00:56:00.451Z,63
2023-05-05T01:00:00.440Z,62
2023-05-05T01:04:00.477Z,63
2023-05-05T01:08:00.465Z,63
2023-05-05T01:12:00.426Z,63
2023-05-05T01:16:00.504Z,63
2023-05-05T01:20:00.432Z,63
2023-05-05T01:24:00.457Z,64
2023-05-05T01:28:00.438Z,64
2023-05-05T01:32:00.573Z,64
2023-05-05T01:36:00.424Z,64
2023-05-05T01:40:00.431Z,65
2023-05-05T01:44:00.449Z,64
2023-05-05T01:48:00.455Z,64
2023-05-05T01:52:00.437Z,64
2023-05-05T01:56:00.454Z,65
2023-05-05T02:00:00.479Z,65
2023-05-05T02:04:00.463Z,65
2023-05-05T02:08:00.440Z,65
2023-05-05T02:12:00.444Z,65
2023-05-05T02:16:00.454Z,65
2023-05-05T02:20:00.463Z,66
2023-05-05T02:24:00.449Z,65
2023-05-05T02:28:00.458Z,65
2023-05-05T02:32:00.457Z,67
2023-05-05T02:36:00.473Z,66
2023-05-05T02:40:00.452Z,66
2023-05-05T02:44:00.471Z,66
2023-05-05T02:48:00.490Z,67
2023-05-05T02:52:00.480Z,67
2023-05-05T02:56:00.457Z,67
2023-05-05T03:00:00.461Z,67
2023-05-05T03:04:00.444Z,67
2023-05-05T03:08:00.459Z,67
2023-05-05T03:12:00.475Z,66
2023-05-05T03:16:00.511Z,66
2023-05-05T03:20:02.949Z,66
2023-05-05T03:24:00.455Z,67
2023-05-05T03:28:00.446Z,67
2023-05-05T03:32:00.536Z,68
2023-05-05T03:36:00.465Z,68
2023-05-05T03:40:00.422Z,68
2023-05-05T03:44:00.457Z,68
2023-05-05T03:48:00.473Z,68
2023-05-05T03:52:00.430Z,68
2023-05-05T03:56:00.431Z,69
2023-05-05T04:00:00.451Z,69
2023-05-05T04:04:00.526Z,68
2023-05-05T04:08:00.456Z,68
2023-05-05T04:12:00.457Z,68
2023-05-05T04:16:00.507Z,68
2023-05-05T04:20:00.476Z,69
2023-05-05T04:24:00.428Z,68
2023-05-05T04:28:00.453Z,68
2023-05-05T04:32:00.464Z,68
2023-05-05T04:36:00.436Z,68
2023-05-05T04:40:00.439Z,68
2023-05-05T04:44:00.440Z,68
2023-05-05T04:48:00.445Z,68
2023-05-05T04:52:00.441Z,67
2023-05-05T04:56:00.451Z,67
2023-05-05T05:00:00.463Z,66
2023-05-05T05:04:00.614Z,66
2023-05-05T05:08:00.436Z,65
2023-05-05T05:12:00.443Z,65
2023-05-05T05:16:00.573Z,64
2023-05-05T05:20:00.457Z,63
2023-05-05T05:24:00.448Z,63
2023-05-05T05:28:09.379Z,62
2023-05-05T05:32:00.485Z,61
2023-05-05T05:36:00.474Z,61
2023-05-05T05:40:00.437Z,60
2023-05-05T05:44:00.466Z,59
2023-05-05T05:48:00.486Z,59
2023-05-05T05:52:00.481Z,59
2023-05-05T05:56:00.452Z,58
2023-05-05T06:00:01.930Z,58
2023-05-05T06:04:00.554Z,59
2023-05-05T06:08:00.479Z,59
2023-05-05T06:12:00.451Z,57
2023-05-05T06:16:00.471Z,56
2023-05-05T06:20:00.470Z,55
2023-05-05T06:24:00.468Z,55
2023-05-05T06:28:00.447Z,53
2023-05-05T06:32:00.444Z,53
2023-05-05T06:36:00.441Z,51
2023-05-05T06:40:00.439Z,51
2023-05-05T06:44:00.420Z,49
2023-05-05T06:48:00.488Z,49
2023-05-05T06:52:00.463Z,50
2023-05-05T06:56:00.423Z,48
2023-05-05T07:00:00.436Z,48
2023-05-05T07:04:00.532Z,49
2023-05-05T07:08:00.461Z,50
2023-05-05T07:12:00.423Z,49
2023-05-05T07:16:00.443Z,49
2023-05-05T07:20:00.434Z,49
2023-05-05T07:24:00.474Z,49
2023-05-05T07:28:00.435Z,49
2023-05-05T07:32:00.489Z,47
2023-05-05T07:36:00.478Z,47
2023-05-05T07:40:00.482Z,46
2023-05-05T07:44:00.444Z,46
2023-05-05T07:48:00.700Z,44
2023-05-05T07:52:00.444Z,44
2023-05-05T07:56:00.466Z,41
2023-05-05T08:00:00.470Z,40
2023-05-05T08:04:00.525Z,43
2023-05-05T08:08:00.461Z,42
2023-05-05T08:12:00.438Z,40
2023-05-05T08:16:00.505Z,39
2023-05-05T08:20:00.443Z,38
2023-05-05T08:24:00.450Z,39
2023-05-05T08:28:00.437Z,39
2023-05-05T08:32:00.590Z,39
2023-05-05T08:36:00.460Z,39
2023-05-05T08:40:00.562Z,39
2023-05-05T08:44:00.436Z,37
2023-05-05T08:48:00.493Z,38
2023-05-05T08:52:00.440Z,37
2023-05-05T08:56:00.435Z,37
2023-05-05T09:00:00.465Z,37
2023-05-05T09:04:00.436Z,37
2023-05-05T09:08:00.461Z,36
2023-05-05T09:12:00.447Z,36
2023-05-05T09:16:00.450Z,36
2023-05-05T09:20:00.467Z,35
2023-05-05T09:24:07.751Z,36
2023-05-05T09:28:00.459Z,35
2023-05-05T09:32:00.454Z,35
2023-05-05T09:36:00.439Z,35
2023-05-05T09:40:00.449Z,35
2023-05-05T09:44:00.465Z,34
2023-05-05T09:48:00.917Z,34
2023-05-05T09:52:00.445Z,35
2023-05-05T09:56:00.441Z,34
2023-05-05T10:00:00.449Z,33
2023-05-05T10:04:00.453Z,33
2023-05-05T10:08:00.436Z,34
2023-05-05T10:12:00.457Z,32
2023-05-05T10:16:00.432Z,32
2023-05-05T10:20:00.461Z,31
2023-05-05T10:24:00.442Z,31
2023-05-05T10:28:00.423Z,33
2023-05-05T10:32:00.497Z,32
2023-05-05T10:36:00.455Z,30
2023-05-05T10:40:00.465Z,31
2023-05-05T10:44:02.854Z,30
2023-05-05T10:48:00.508Z,30
2023-05-05T10:52:00.444Z,30
2023-05-05T10:56:00.454Z,30
2023-05-05T11:00:00.437Z,30
2023-05-05T11:04:00.499Z,30
2023-05-05T11:08:00.433Z,30
2023-05-05T11:12:00.456Z,30
2023-05-05T11:16:00.448Z,30
2023-05-05T11:20:00.448Z,29
2023-05-05T11:24:00.465Z,30
2023-05-05T11:28:00.434Z,30
2023-05-05T11:32:00.439Z,28
2023-05-05T11:36:00.974Z,29
2023-05-05T11:40:00.456Z,30
2023-05-05T11:44:00.461Z,30
2023-05-05T11:48:00.524Z,27
2023-05-05T11:52:00.476Z,28
2023-05-05T11:56:00.442Z,28
2023-05-05T12:00:00.456Z,29
2023-05-05T12:04:00.566Z,30
2023-05-05T12:08:00.447Z,28
2023-05-05T12:12:00.449Z,28
2023-05-05T12:16:00.470Z,27
2023-05-05T12:20:00.452Z,28
2023-05-05T12:24:00.422Z,25
2023-05-05T12:28:00.458Z,24
2023-05-05T12:32:00.556Z,25
2023-05-05T12:36:00.441Z,26
2023-05-05T12:40:00.455Z,25
2023-05-05T12:44:00.461Z,25
2023-05-05T12:48:00.465Z,23
2023-05-05T12:52:00.437Z,25
2023-05-05T12:56:00.436Z,24
2023-05-05T13:00:00.486Z,25
2023-05-05T13:04:00.451Z,24
2023-05-05T13:08:00.453Z,25
2023-05-05T13:12:00.440Z,26
2023-05-05T13:16:00.461Z,26
2023-05-05T13:20:00.482Z,24
2023-05-05T13:24:18.248Z,24
2023-05-05T13:28:00.458Z,25
2023-05-05T13:32:00.456Z,26
2023-05-05T13:36:00.455Z,25
2023-05-05T13:40:00.483Z,23
2023-05-05T13:44:00.455Z,25
2023-05-05T13:48:00.467Z,24
2023-05-05T13:52:00.448Z,25
2023-05-05T13:56:00.451Z,24
2023-05-05T14:00:00.463Z,25
2023-05-05T14:04:02.016Z,26
2023-05-05T14:08:00.451Z,26
2023-05-05T14:12:00.442Z,24
2023-05-05T14:16:00.506Z,26
2023-05-05T14:20:00.434Z,26
2023-05-05T14:24:00.477Z,26
2023-05-05T14:28:00.445Z,26
2023-05-05T14:32:00.510Z,27
2023-05-05T14:36:00.457Z,26
2023-05-05T14:40:00.443Z,27
2023-05-05T14:44:00.453Z,29
2023-05-05T14:48:00.484Z,29
2023-05-05T14:52:00.483Z,30
2023-05-05T14:56:00.472Z,30
2023-05-05T15:00:00.465Z,29
2023-05-05T15:04:00.520Z,30
2023-05-05T15:08:00.462Z,28
2023-05-05T15:12:00.454Z,28
2023-05-05T15:16:00.532Z,28
2023-05-05T15:20:00.450Z,26
2023-05-05T15:24:00.453Z,26
2023-05-05T15:28:00.430Z,26
2023-05-05T15:32:00.617Z,25
2023-05-05T15:36:00.460Z,26
2023-05-05T15:40:00.440Z,26
2023-05-05T15:44:00.447Z,26
2023-05-05T15:48:00.485Z,26
2023-05-05T15:52:00.436Z,26
2023-05-05T15:56:00.466Z,28
2023-05-05T16:00:00.450Z,29
2023-05-05T16:04:00.448Z,30
2023-05-05T16:08:00.440Z,30
2023-05-05T16:12:00.473Z,30
2023-05-05T16:16:00.444Z,31
2023-05-05T16:20:00.487Z,32
2023-05-05T16:24:00.440Z,32
2023-05-05T16:28:00.484Z,32
2023-05-05T16:32:00.453Z,33
2023-05-05T16:36:00.448Z,33
2023-05-05T16:40:00.453Z,34
2023-05-05T16:44:00.437Z,34
2023-05-05T16:48:00.505Z,34
2023-05-05T16:52:00.463Z,35
2023-05-05T16:56:00.485Z,35
2023-05-05T17:00:00.448Z,35
2023-05-05T17:04:00.435Z,36
2023-05-05T17:08:00.438Z,36
2023-05-05T17:12:00.428Z,37
2023-05-05T17:16:00.488Z,37
2023-05-05T17:20:00.533Z,37
2023-05-05T17:24:00.458Z,38
2023-05-05T17:28:00.445Z,38
2023-05-05T17:32:00.530Z,39
2023-05-05T17:36:00.492Z,39
2023-05-05T17:40:00.448Z,39
2023-05-05T17:44:00.467Z,40
2023-05-05T17:48:00.528Z,40
2023-05-05T17:52:00.447Z,41
2023-05-05T17:56:00.444Z,41
2023-05-05T18:00:00.439Z,42
2023-05-05T18:04:00.457Z,43
2023-05-05T18:08:00.436Z,44
2023-05-05T18:12:00.449Z,44
2023-05-05T18:16:00.488Z,44
2023-05-05T18:20:00.434Z,45
2023-05-05T18:24:11.619Z,46
2023-05-05T18:28:00.475Z,46
2023-05-05T18:32:00.445Z,47
2023-05-05T18:36:00.501Z,48
2023-05-05T18:40:00.441Z,48
2023-05-05T18:44:00.426Z,48
2023-05-05T18:48:00.487Z,48
2023-05-05T18:52:00.454Z,49
2023-05-05T18:56:00.457Z,49
2023-05-05T19:00:00.463Z,49
2023-05-05T19:04:00.470Z,49
2023-05-05T19:08:00.445Z,49
2023-05-05T19:12:00.461Z,50
2023-05-05T19:16:00.500Z,50
2023-05-05T19:20:00.495Z,49
2023-05-05T19:24:00.473Z,49
2023-05-05T19:28:00.455Z,50
2023-05-05T19:32:00.581Z,50
2023-05-05T19:36:00.458Z,51
2023-05-05T19:40:00.455Z,51
2023-05-05T19:44:00.436Z,51
2023-05-05T19:48:00.453Z,52
2023-05-05T19:52:00.431Z,52
2023-05-05T19:56:00.429Z,51
2023-05-05T20:00:00.444Z,51
2023-05-05T20:04:00.495Z,52
2023-05-05T20:08:00.443Z,52
2023-05-05T20:12:00.441Z,52
2023-05-05T20:16:00.507Z,52
2023-05-05T20:20:00.435Z,52
2023-05-05T20:24:00.445Z,52
2023-05-05T20:28:00.479Z,53
2023-05-05T20:32:00.452Z,53
2023-05-05T20:36:00.470Z,53
2023-05-05T20:40:00.458Z,52
2023-05-05T20:44:00.435Z,52
2023-05-05T20:48:00.510Z,53
2023-05-05T20:52:00.489Z,53
2023-05-05T20:56:00.434Z,53
2023-05-05T21:00:00.454Z,52
2023-05-05T21:04:00.504Z,53
2023-05-05T21:08:01.009Z,53
2023-05-05T21:12:00.468Z,52
2023-05-05T21:16:00.451Z,52
2023-05-05T21:20:00.455Z,52
2023-05-05T21:24:00.434Z,52
2023-05-05T21:28:00.447Z,52
2023-05-05T21:32:00.484Z,52
2023-05-05T21:36:00.679Z,52
2023-05-05T21:40:00.464Z,52
2023-05-05T21:44:00.454Z,52
2023-05-05T21:48:00.488Z,52
2023-05-05T21:52:00.589Z,53
2023-05-05T21:56:00.432Z,54
2023-05-05T22:00:00.498Z,55
2023-05-05T22:04:00.488Z,55
2023-05-05T22:08:00.459Z,55
2023-05-05T22:12:00.474Z,56
2023-05-05T22:16:00.474Z,56
2023-05-05T22:20:00.462Z,56
2023-05-05T22:24:00.468Z,56
2023-05-05T22:28:00.431Z,57
2023-05-05T22:32:00.452Z,57
2023-05-05T22:36:00.448Z,57
2023-05-05T22:40:00.471Z,58
2023-05-05T22:44:00.453Z,58
2023-05-05T22:48:00.449Z,59
2023-05-05T22:52:00.443Z,59
2023-05-05T22:56:00.479Z,59
2023-05-05T23:00:00.468Z,59
2023-05-05T23:04:00.438Z,60
2023-05-05T23:08:00.446Z,61
2023-05-05T23:12:00.425Z,62
2023-05-05T23:16:00.470Z,63
2023-05-05T23:20:00.468Z,65
2023-05-05T23:24:00.452Z,65
2023-05-05T23:28:00.473Z,66
2023-05-05T23:32:00.432Z,67
2023-05-05T23:36:00.464Z,67
2023-05-05T23:40:00.445Z,69
2023-05-05T23:44:00.448Z,69
2023-05-05T23:48:00.503Z,71
2023-05-05T23:52:00.440Z,72
2023-05-05T23:56:00.433Z,72
